Time;durP1;ratioP1;P1;durP2;ratioP2;P2;SDS_P1;SDS_P2;PMS_P1;PMS_P2;Temp;Humidity;BMP_temperature;BMP_pressure;BME280_temperature;BME280_humidity;BME280_pressure;Samples;Min_cycle;Max_cycle;Signal;HPM_P1;HPM_P2
2023/05/16 00:01:34;;;;;;;16.50;10.27;;;;;;;;;;5007350;28;20639;-57
2023/05/16 00:04:02;;;;;;;17.63;9.30;;;;;;;;;;5006213;28;20687;-57
2023/05/16 00:06:30;;;;;;;17.40;9.48;;;;;;;;;;5006226;28;20670;-57
2023/05/16 00:08:57;;;;;;;13.43;8.95;;;;;;;;;;4999367;28;20229;-57
2023/05/16 00:11:24;;;;;;;16.10;9.57;;;;;;;;;;4994058;28;20236;-57
2023/05/16 00:13:52;;;;;;;18.65;9.40;;;;;;;;;;4998347;28;20223;-57
2023/05/16 00:16:20;;;;;;;18.77;9.82;;;;;;;;;;4999237;28;20243;-57
2023/05/16 00:18:49;;;;;;;19.02;9.18;;;;;;;;;;5001175;28;20285;-57
2023/05/16 00:21:16;;;;;;;13.07;7.68;;;;;;;;;;5000671;28;20735;-57
2023/05/16 00:23:43;;;;;;;24.20;10.05;;;;;;;;;;5005593;28;20608;-57
2023/05/16 00:26:10;;;;;;;14.55;8.88;;;;;;;;;;5006419;28;20228;-56
2023/05/16 00:28:37;;;;;;;13.82;8.40;;;;;;;;;;5006094;28;20304;-57
2023/05/16 00:31:04;;;;;;;19.30;9.55;;;;;;;;;;5006185;28;20215;-57
2023/05/16 00:33:31;;;;;;;16.10;9.40;;;;;;;;;;4989670;28;20714;-56
2023/05/16 00:35:59;;;;;;;15.60;9.07;;;;;;;;;;4993692;28;20279;-57
2023/05/16 00:38:27;;;;;;;16.13;8.73;;;;;;;;;;4988177;28;20216;-57
2023/05/16 00:40:54;;;;;;;16.10;8.57;;;;;;;;;;4988091;28;20230;-56
2023/05/16 00:43:21;;;;;;;15.93;8.40;;;;;;;;;;5006001;28;20212;-57
2023/05/16 00:45:48;;;;;;;15.65;8.80;;;;;;;;;;4998091;28;20209;-56
2023/05/16 00:48:15;;;;;;;16.15;9.20;;;;;;;;;;5006139;28;20208;-56
2023/05/16 00:50:42;;;;;;;17.83;8.82;;;;;;;;;;4997546;28;20283;-57
2023/05/16 00:53:11;;;;;;;13.47;8.57;;;;;;;;;;4998610;28;20209;-57
2023/05/16 00:55:38;;;;;;;16.77;8.45;;;;;;;;;;5009091;28;20387;-57
2023/05/16 00:58:05;;;;;;;15.18;8.48;;;;;;;;;;5008573;28;20220;-56
2023/05/16 01:00:32;;;;;;;16.35;8.75;;;;;;;;;;4999521;28;20210;-56
2023/05/16 01:03:00;;;;;;;14.00;8.32;;;;;;;;;;4990408;28;20369;-57
2023/05/16 01:05:27;;;;;;;17.02;8.65;;;;;;;;;;4997712;28;20210;-57
2023/05/16 01:07:54;;;;;;;13.27;8.10;;;;;;;;;;5002466;28;20270;-57
2023/05/16 01:10:22;;;;;;;12.80;7.35;;;;;;;;;;5008600;28;20263;-57
2023/05/16 01:12:57;;;;;;;13.27;8.10;;;;;;;;;;5002116;28;20439;-57
2023/05/16 01:15:26;;;;;;;16.08;8.35;;;;;;;;;;4996306;28;20239;-57
2023/05/16 01:17:55;;;;;;;12.93;8.45;;;;;;;;;;4998930;28;20205;-57
2023/05/16 01:20:28;;;;;;;14.02;8.68;;;;;;;;;;5008951;28;20703;-57
2023/05/16 01:23:05;;;;;;;14.15;8.18;;;;;;;;;;4997757;28;20241;-57
2023/05/16 01:25:47;;;;;;;16.50;9.03;;;;;;;;;;5003750;28;20647;-57
2023/05/16 01:28:16;;;;;;;11.40;7.20;;;;;;;;;;5009634;28;20217;-57
2023/05/16 01:30:43;;;;;;;17.73;9.10;;;;;;;;;;5004605;28;20213;-56
2023/05/16 01:33:11;;;;;;;14.67;8.70;;;;;;;;;;5008394;28;20205;-57
2023/05/16 01:35:41;;;;;;;12.30;8.57;;;;;;;;;;5007629;28;20300;-58
2023/05/16 01:38:11;;;;;;;13.40;8.27;;;;;;;;;;4998862;28;20908;-57
2023/05/16 01:40:42;;;;;;;15.48;8.82;;;;;;;;;;5027355;28;20219;-57
2023/05/16 01:43:11;;;;;;;13.10;8.43;;;;;;;;;;5022626;28;20228;-56
2023/05/16 01:45:42;;;;;;;15.98;8.68;;;;;;;;;;5009068;28;20224;-57
2023/05/16 01:48:11;;;;;;;17.13;7.63;;;;;;;;;;5009306;28;20213;-58
2023/05/16 01:50:44;;;;;;;15.35;8.98;;;;;;;;;;4989930;28;20279;-57
2023/05/16 01:53:15;;;;;;;15.10;8.80;;;;;;;;;;4990558;28;20644;-57
2023/05/16 01:55:43;;;;;;;13.32;8.13;;;;;;;;;;4998596;28;20675;-57
2023/05/16 01:58:10;;;;;;;12.90;7.88;;;;;;;;;;5002127;28;20205;-57
2023/05/16 02:00:37;;;;;;;12.98;8.18;;;;;;;;;;5007164;28;20213;-57
2023/05/16 02:03:06;;;;;;;14.10;8.50;;;;;;;;;;4988590;28;20272;-57
2023/05/16 02:05:33;;;;;;;8.93;6.20;;;;;;;;;;4995545;28;20217;-57
2023/05/16 02:08:00;;;;;;;13.05;7.30;;;;;;;;;;5003644;28;20202;-56
2023/05/16 02:10:28;;;;;;;13.13;8.10;;;;;;;;;;4994079;28;20212;-57
2023/05/16 02:12:55;;;;;;;11.30;6.82;;;;;;;;;;5008067;28;20197;-57
2023/05/16 02:15:22;;;;;;;9.13;6.35;;;;;;;;;;5005700;28;20209;-57
2023/05/16 02:17:49;;;;;;;12.52;7.40;;;;;;;;;;4990398;28;20720;-58
2023/05/16 02:20:17;;;;;;;8.43;6.38;;;;;;;;;;5008118;28;20233;-57
2023/05/16 02:22:46;;;;;;;11.10;7.10;;;;;;;;;;4993232;28;20245;-57
2023/05/16 02:25:13;;;;;;;11.18;6.85;;;;;;;;;;5001531;28;20304;-57
2023/05/16 02:27:41;;;;;;;13.43;7.28;;;;;;;;;;5005192;28;20209;-56
2023/05/16 02:30:09;;;;;;;10.30;7.13;;;;;;;;;;5001678;28;20303;-57
2023/05/16 02:32:36;;;;;;;20.37;7.23;;;;;;;;;;5003878;28;20228;-57
2023/05/16 02:35:03;;;;;;;12.77;7.47;;;;;;;;;;5003479;28;20245;-57
2023/05/16 02:37:32;;;;;;;14.07;6.47;;;;;;;;;;5006937;28;20209;-57
2023/05/16 02:39:59;;;;;;;10.10;6.65;;;;;;;;;;4994837;28;20221;-57
2023/05/16 02:42:26;;;;;;;9.00;6.10;;;;;;;;;;4988325;28;20763;-57
2023/05/16 02:44:54;;;;;;;9.53;6.20;;;;;;;;;;5000861;28;20299;-57
2023/05/16 02:47:20;;;;;;;11.18;7.60;;;;;;;;;;4988266;28;20205;-57
2023/05/16 02:49:48;;;;;;;11.52;6.85;;;;;;;;;;4988884;28;20222;-57
2023/05/16 02:52:15;;;;;;;15.75;6.88;;;;;;;;;;4997194;28;20229;-57
2023/05/16 02:54:43;;;;;;;11.98;8.25;;;;;;;;;;4991261;28;20221;-57
2023/05/16 02:57:11;;;;;;;11.32;6.75;;;;;;;;;;5001891;28;20675;-57
2023/05/16 02:59:38;;;;;;;14.07;6.68;;;;;;;;;;4990257;28;20330;-57
2023/05/16 03:02:05;;;;;;;14.20;6.70;;;;;;;;;;4991475;28;20374;-57
2023/05/16 03:04:32;;;;;;;13.13;7.25;;;;;;;;;;5001891;28;20220;-56
2023/05/16 03:06:59;;;;;;;10.53;7.27;;;;;;;;;;5006159;28;20240;-57
2023/05/16 03:09:26;;;;;;;13.63;7.03;;;;;;;;;;5000818;28;20212;-57
2023/05/16 03:11:55;;;;;;;8.73;6.05;;;;;;;;;;4996137;28;20205;-56
2023/05/16 03:14:22;;;;;;;11.55;7.22;;;;;;;;;;4999750;28;20583;-57
2023/05/16 03:16:49;;;;;;;13.82;7.72;;;;;;;;;;5001459;28;20664;-57
2023/05/16 03:19:16;;;;;;;12.20;6.63;;;;;;;;;;5006109;28;20217;-57
2023/05/16 03:21:43;;;;;;;9.73;6.10;;;;;;;;;;4999938;28;20229;-57
2023/05/16 03:24:11;;;;;;;11.85;6.85;;;;;;;;;;5005018;28;20224;-56
2023/05/16 03:26:38;;;;;;;16.92;6.05;;;;;;;;;;5004293;28;20692;-57
2023/05/16 03:29:07;;;;;;;11.13;6.57;;;;;;;;;;4987798;28;20210;-57
2023/05/16 03:31:34;;;;;;;7.77;5.73;;;;;;;;;;4994574;28;20208;-57
2023/05/16 03:34:01;;;;;;;8.30;5.90;;;;;;;;;;5005386;28;20255;-57
2023/05/16 03:36:29;;;;;;;18.10;6.95;;;;;;;;;;5006244;28;20221;-57
2023/05/16 03:38:56;;;;;;;11.03;6.17;;;;;;;;;;4997664;28;20206;-57
2023/05/16 03:41:23;;;;;;;12.93;6.53;;;;;;;;;;4988483;28;20267;-57
2023/05/16 03:43:50;;;;;;;11.57;6.78;;;;;;;;;;4997428;28;20303;-57
2023/05/16 03:46:18;;;;;;;10.87;6.27;;;;;;;;;;5001429;28;20296;-57
2023/05/16 03:48:46;;;;;;;11.57;6.37;;;;;;;;;;5005175;28;20228;-57
2023/05/16 03:51:13;;;;;;;9.83;5.90;;;;;;;;;;5005165;28;20256;-57
2023/05/16 03:53:40;;;;;;;10.40;6.00;;;;;;;;;;5004328;28;20205;-57
2023/05/16 03:56:07;;;;;;;15.23;6.50;;;;;;;;;;4988143;28;20205;-57
2023/05/16 03:58:34;;;;;;;10.93;5.63;;;;;;;;;;4997473;28;20220;-57
2023/05/16 04:01:01;;;;;;;8.17;5.37;;;;;;;;;;4998745;28;20205;-57
2023/05/16 04:03:30;;;;;;;7.07;5.00;;;;;;;;;;4990292;28;20244;-57
2023/05/16 04:05:57;;;;;;;6.67;4.60;;;;;;;;;;4991269;28;20217;-57
2023/05/16 04:08:24;;;;;;;7.10;4.90;;;;;;;;;;4990197;28;20218;-57
2023/05/16 04:10:51;;;;;;;6.07;4.37;;;;;;;;;;4986496;28;20715;-57
2023/05/16 04:13:18;;;;;;;6.67;4.50;;;;;;;;;;4993861;28;20213;-57
2023/05/16 04:15:45;;;;;;;6.93;4.27;;;;;;;;;;5002021;28;20546;-56
2023/05/16 04:18:13;;;;;;;5.68;4.03;;;;;;;;;;5003722;28;20217;-56
2023/05/16 04:20:42;;;;;;;3.80;3.47;;;;;;;;;;4994443;28;20252;-56
2023/05/16 04:23:10;;;;;;;3.60;3.30;;;;;;;;;;4991304;28;20623;-56
2023/05/16 04:25:38;;;;;;;4.23;3.60;;;;;;;;;;5000184;28;20220;-56
2023/05/16 04:28:05;;;;;;;4.20;2.90;;;;;;;;;;5009334;28;20205;-56
2023/05/16 04:30:32;;;;;;;2.57;2.37;;;;;;;;;;4995777;28;20217;-56
2023/05/16 04:33:00;;;;;;;8.87;2.27;;;;;;;;;;5008932;28;20740;-56
2023/05/16 04:35:28;;;;;;;2.20;1.70;;;;;;;;;;4997331;28;20239;-56
2023/05/16 04:37:56;;;;;;;2.17;1.87;;;;;;;;;;5009517;28;20686;-56
2023/05/16 04:40:24;;;;;;;2.75;2.20;;;;;;;;;;5010955;28;20212;-57
2023/05/16 04:42:52;;;;;;;3.33;1.53;;;;;;;;;;5002564;28;20297;-57
2023/05/16 04:45:19;;;;;;;1.70;1.60;;;;;;;;;;4991194;28;20210;-57
2023/05/16 04:47:46;;;;;;;1.13;1.13;;;;;;;;;;5000764;28;20213;-57
2023/05/16 04:50:15;;;;;;;1.10;1.10;;;;;;;;;;4990979;28;20217;-56
2023/05/16 04:52:42;;;;;;;0.87;0.87;;;;;;;;;;4998939;28;20212;-56
2023/05/16 04:55:11;;;;;;;0.90;0.90;;;;;;;;;;4995364;28;20264;-57
2023/05/16 04:57:38;;;;;;;0.93;0.70;;;;;;;;;;4993243;28;20209;-56
2023/05/16 05:00:09;;;;;;;0.73;0.73;;;;;;;;;;5002932;28;20210;-56
2023/05/16 05:02:36;;;;;;;1.17;0.60;;;;;;;;;;5000638;28;20229;-57
2023/05/16 05:05:03;;;;;;;1.30;0.77;;;;;;;;;;4994878;28;20721;-57
2023/05/16 05:07:30;;;;;;;0.40;0.40;;;;;;;;;;4995634;28;20232;-57
2023/05/16 05:09:57;;;;;;;0.50;0.50;;;;;;;;;;5008568;28;20209;-57
2023/05/16 05:12:27;;;;;;;0.40;0.40;;;;;;;;;;4998391;28;20205;-56
2023/05/16 05:14:54;;;;;;;0.43;0.43;;;;;;;;;;5001539;28;20296;-56
2023/05/16 05:17:21;;;;;;;1.10;0.70;;;;;;;;;;5008500;28;20236;-57
2023/05/16 05:19:48;;;;;;;0.60;0.60;;;;;;;;;;5000278;28;20594;-56
2023/05/16 05:22:15;;;;;;;0.57;0.57;;;;;;;;;;5001278;28;20233;-56
2023/05/16 05:24:56;;;;;;;0.70;0.65;;;;;;;;;;4990965;28;20217;-57
2023/05/16 05:27:24;;;;;;;0.40;0.40;;;;;;;;;;4995589;28;20237;-56
2023/05/16 05:29:52;;;;;;;0.75;0.50;;;;;;;;;;5003656;28;20259;-56
2023/05/16 05:32:19;;;;;;;0.50;0.50;;;;;;;;;;5009592;28;20220;-56
2023/05/16 05:34:46;;;;;;;0.50;0.50;;;;;;;;;;5008966;28;20228;-56
2023/05/16 05:37:13;;;;;;;0.45;0.45;;;;;;;;;;4996078;28;20217;-56
2023/05/16 05:39:40;;;;;;;0.30;0.30;;;;;;;;;;5009447;28;20260;-56
2023/05/16 05:42:07;;;;;;;0.50;0.50;;;;;;;;;;4990750;28;20252;-56
2023/05/16 05:44:36;;;;;;;0.53;0.53;;;;;;;;;;4992982;28;20209;-56
2023/05/16 05:47:05;;;;;;;0.40;0.40;;;;;;;;;;5000008;28;20209;-56
2023/05/16 05:49:32;;;;;;;0.50;0.50;;;;;;;;;;4995754;28;20217;-58
2023/05/16 05:51:59;;;;;;;0.52;0.52;;;;;;;;;;4994550;28;20216;-58
2023/05/16 05:54:26;;;;;;;1.57;0.60;;;;;;;;;;4988282;28;20224;-58
2023/05/16 05:56:53;;;;;;;0.63;0.63;;;;;;;;;;4993580;28;20268;-58
2023/05/16 05:59:20;;;;;;;0.85;0.47;;;;;;;;;;5025088;28;20670;-57
2023/05/16 06:01:51;;;;;;;0.50;0.50;;;;;;;;;;5016122;28;20212;-58
2023/05/16 06:04:19;;;;;;;0.50;0.50;;;;;;;;;;5027910;28;20236;-58
2023/05/16 06:06:47;;;;;;;0.60;0.60;;;;;;;;;;5028133;28;20231;-58
2023/05/16 06:09:14;;;;;;;2.58;0.40;;;;;;;;;;5028219;28;20223;-58
2023/05/16 06:11:41;;;;;;;0.30;0.30;;;;;;;;;;5010682;28;20212;-57
2023/05/16 06:14:08;;;;;;;0.28;0.28;;;;;;;;;;5010927;28;20196;-57
2023/05/16 06:16:35;;;;;;;0.30;0.30;;;;;;;;;;5006408;28;20213;-58
2023/05/16 06:19:02;;;;;;;0.10;0.10;;;;;;;;;;5008131;28;21017;-58
2023/05/16 06:21:31;;;;;;;0.30;0.30;;;;;;;;;;5005673;28;20232;-59
2023/05/16 06:23:58;;;;;;;0.30;0.30;;;;;;;;;;5003397;28;20240;-58
2023/05/16 06:26:25;;;;;;;0.10;0.10;;;;;;;;;;4999152;28;20206;-58
2023/05/16 06:28:52;;;;;;;0.30;0.30;;;;;;;;;;5008383;28;20267;-57
2023/05/16 06:31:19;;;;;;;0.30;0.30;;;;;;;;;;5011094;28;20703;-57
2023/05/16 06:33:46;;;;;;;0.20;0.20;;;;;;;;;;5026637;28;20212;-57
2023/05/16 06:36:13;;;;;;;0.57;0.20;;;;;;;;;;5007438;28;20219;-57
2023/05/16 06:38:41;;;;;;;0.23;0.23;;;;;;;;;;5007862;28;20213;-57
2023/05/16 06:41:08;;;;;;;0.57;0.22;;;;;;;;;;5007565;28;20690;-57
2023/05/16 06:43:35;;;;;;;0.23;0.23;;;;;;;;;;5006886;28;20934;-57
2023/05/16 06:46:02;;;;;;;0.20;0.20;;;;;;;;;;5007703;28;20213;-57
2023/05/16 06:48:29;;;;;;;0.20;0.20;;;;;;;;;;5007086;28;20308;-58
2023/05/16 06:50:57;;;;;;;0.10;0.10;;;;;;;;;;5008124;28;20204;-57
2023/05/16 06:53:24;;;;;;;0.30;0.30;;;;;;;;;;5007481;28;20287;-57
2023/05/16 06:55:52;;;;;;;0.20;0.20;;;;;;;;;;5006633;28;20651;-57
2023/05/16 06:58:19;;;;;;;0.10;0.10;;;;;;;;;;5005825;28;20387;-56
2023/05/16 07:00:46;;;;;;;0.27;0.27;;;;;;;;;;4988249;28;20221;-55
2023/05/16 07:03:13;;;;;;;0.20;0.20;;;;;;;;;;4987570;28;20241;-56
2023/05/16 07:05:40;;;;;;;0.20;0.20;;;;;;;;;;5005961;28;20209;-55
2023/05/16 07:08:09;;;;;;;0.10;0.10;;;;;;;;;;4988196;28;20213;-56
2023/05/16 07:10:36;;;;;;;0.10;0.10;;;;;;;;;;4987286;28;20591;-55
2023/05/16 07:13:05;;;;;;;0.10;0.10;;;;;;;;;;4987966;28;20202;-55
2023/05/16 07:15:32;;;;;;;0.20;0.20;;;;;;;;;;4992880;28;20209;-55
2023/05/16 07:18:00;;;;;;;0.20;0.20;;;;;;;;;;5006395;28;20232;-55
2023/05/16 07:20:27;;;;;;;0.10;0.10;;;;;;;;;;5004793;28;20243;-55
2023/05/16 07:22:56;;;;;;;0.20;0.20;;;;;;;;;;5006832;28;20698;-56
2023/05/16 07:25:23;;;;;;;0.20;0.20;;;;;;;;;;4995344;28;20210;-55
2023/05/16 07:27:50;;;;;;;2.00;0.27;;;;;;;;;;4991648;28;20247;-55
2023/05/16 07:30:19;;;;;;;0.13;0.13;;;;;;;;;;4998626;28;20204;-56
2023/05/16 07:32:46;;;;;;;0.10;0.10;;;;;;;;;;5013777;28;20300;-56
2023/05/16 07:35:13;;;;;;;0.57;0.20;;;;;;;;;;5018542;28;20307;-56
2023/05/16 07:37:42;;;;;;;0.13;0.13;;;;;;;;;;5026632;28;20216;-56
2023/05/16 07:40:10;;;;;;;0.20;0.20;;;;;;;;;;5026406;28;20216;-56
2023/05/16 07:42:37;;;;;;;0.10;0.10;;;;;;;;;;5011101;28;20201;-56
2023/05/16 07:45:04;;;;;;;0.10;0.10;;;;;;;;;;5007330;28;20237;-55
2023/05/16 07:47:32;;;;;;;0.10;0.10;;;;;;;;;;5018695;28;20270;-56
2023/05/16 07:49:59;;;;;;;0.10;0.10;;;;;;;;;;5007372;28;20205;-56
2023/05/16 07:52:27;;;;;;;0.20;0.20;;;;;;;;;;5004032;28;20227;-58
2023/05/16 07:54:54;;;;;;;0.10;0.10;;;;;;;;;;5003212;28;20216;-56
2023/05/16 07:57:21;;;;;;;0.10;0.10;;;;;;;;;;5003828;28;20213;-56
2023/05/16 07:59:48;;;;;;;0.10;0.10;;;;;;;;;;5006666;28;20254;-56
2023/05/16 08:02:16;;;;;;;0.00;0.00;;;;;;;;;;5004212;28;20197;-56
2023/05/16 08:04:44;;;;;;;0.10;0.10;;;;;;;;;;5005117;28;20233;-57
2023/05/16 08:07:12;;;;;;;0.10;0.10;;;;;;;;;;5005121;28;20278;-56
2023/05/16 08:09:39;;;;;;;0.10;0.10;;;;;;;;;;5004615;28;20224;-56
2023/05/16 08:12:06;;;;;;;0.00;0.00;;;;;;;;;;5000765;28;20236;-56
2023/05/16 08:14:33;;;;;;;0.10;0.10;;;;;;;;;;4999009;28;20202;-55
2023/05/16 08:17:00;;;;;;;0.00;0.00;;;;;;;;;;5002652;28;20213;-57
2023/05/16 08:19:28;;;;;;;0.00;0.00;;;;;;;;;;4995336;28;20241;-56
2023/05/16 08:21:56;;;;;;;0.00;0.00;;;;;;;;;;4993732;28;20786;-56
2023/05/16 08:24:23;;;;;;;0.00;0.00;;;;;;;;;;5000978;28;20233;-56
2023/05/16 08:26:50;;;;;;;0.00;0.00;;;;;;;;;;5000998;28;20232;-56
2023/05/16 08:29:17;;;;;;;0.10;0.10;;;;;;;;;;4995774;28;20241;-57
2023/05/16 08:31:44;;;;;;;0.00;0.00;;;;;;;;;;4991707;28;20213;-57
2023/05/16 08:34:11;;;;;;;0.00;0.00;;;;;;;;;;4996141;28;20607;-57
2023/05/16 08:36:38;;;;;;;0.00;0.00;;;;;;;;;;5001854;28;20205;-56
2023/05/16 08:39:09;;;;;;;0.03;0.03;;;;;;;;;;5003033;28;20209;-57
2023/05/16 08:41:36;;;;;;;0.00;0.00;;;;;;;;;;5008095;28;20295;-57
2023/05/16 08:44:03;;;;;;;0.00;0.00;;;;;;;;;;4998926;28;20240;-57
2023/05/16 08:46:30;;;;;;;0.00;0.00;;;;;;;;;;5009334;28;20267;-57
2023/05/16 08:49:16;;;;;;;0.00;0.00;;;;;;;;;;4995409;28;20432;-55
2023/05/16 08:51:43;;;;;;;0.00;0.00;;;;;;;;;;4991305;28;20690;-55
2023/05/16 08:54:12;;;;;;;0.00;0.00;;;;;;;;;;5004124;28;20486;-55
2023/05/16 08:56:39;;;;;;;0.00;0.00;;;;;;;;;;5004598;28;20305;-56
2023/05/16 08:59:07;;;;;;;0.00;0.00;;;;;;;;;;4996931;28;20209;-56
2023/05/16 09:01:34;;;;;;;0.40;0.10;;;;;;;;;;4984127;28;20892;-56
2023/05/16 09:04:01;;;;;;;0.00;0.00;;;;;;;;;;4996453;28;20229;-55
2023/05/16 09:06:28;;;;;;;0.00;0.00;;;;;;;;;;5000365;28;20853;-56
2023/05/16 09:08:55;;;;;;;0.00;0.00;;;;;;;;;;5003487;28;20217;-56
2023/05/16 09:11:24;;;;;;;0.00;0.00;;;;;;;;;;5004535;28;20223;-55
2023/05/16 09:13:51;;;;;;;0.10;0.10;;;;;;;;;;5005573;28;20208;-56
2023/05/16 09:16:19;;;;;;;0.20;0.20;;;;;;;;;;5008105;28;20232;-56
2023/05/16 09:18:47;;;;;;;0.40;0.10;;;;;;;;;;5008053;28;20205;-55
2023/05/16 09:21:15;;;;;;;0.07;0.07;;;;;;;;;;4999986;28;20237;-56
2023/05/16 09:23:43;;;;;;;0.40;0.20;;;;;;;;;;5004815;28;20303;-56
2023/05/16 09:26:10;;;;;;;0.33;0.10;;;;;;;;;;5004563;28;20706;-56
2023/05/16 09:28:39;;;;;;;0.10;0.10;;;;;;;;;;5008882;28;20754;-56
2023/05/16 09:31:19;;;;;;;0.10;0.10;;;;;;;;;;5007340;28;20215;-56
2023/05/16 09:33:46;;;;;;;0.20;0.20;;;;;;;;;;5008792;28;20201;-57
2023/05/16 09:36:13;;;;;;;0.20;0.20;;;;;;;;;;5001810;28;20210;-56
2023/05/16 09:38:40;;;;;;;0.10;0.10;;;;;;;;;;4998553;28;20198;-56
2023/05/16 09:41:09;;;;;;;1.90;0.10;;;;;;;;;;5007217;28;20239;-56
2023/05/16 09:43:38;;;;;;;0.20;0.20;;;;;;;;;;5008988;28;20209;-57
2023/05/16 09:46:06;;;;;;;0.20;0.20;;;;;;;;;;5000902;28;20252;-57
2023/05/16 09:48:34;;;;;;;0.57;0.20;;;;;;;;;;5004025;28;20212;-57
2023/05/16 09:51:03;;;;;;;0.20;0.20;;;;;;;;;;5008440;28;20197;-56
2023/05/16 09:53:32;;;;;;;0.20;0.20;;;;;;;;;;5009234;28;20213;-56
2023/05/16 09:56:00;;;;;;;0.33;0.20;;;;;;;;;;5008187;28;20300;-56
2023/05/16 09:58:29;;;;;;;0.23;0.23;;;;;;;;;;5008108;28;20311;-56
2023/05/16 10:00:57;;;;;;;1.50;0.30;;;;;;;;;;4995090;28;20233;-57
2023/05/16 10:03:26;;;;;;;0.00;0.00;;;;;;;;;;4989471;28;20740;-57
2023/05/16 10:05:54;;;;;;;0.30;0.30;;;;;;;;;;4990128;28;20234;-61
2023/05/16 10:08:21;;;;;;;0.33;0.30;;;;;;;;;;4990548;28;20202;-69
2023/05/16 10:10:50;;;;;;;1.23;0.23;;;;;;;;;;4989333;28;20210;-56
2023/05/16 10:13:18;;;;;;;3.23;0.40;;;;;;;;;;5001644;28;20220;-56
2023/05/16 10:15:45;;;;;;;0.50;0.50;;;;;;;;;;5002759;28;20208;-56
2023/05/16 10:18:13;;;;;;;1.37;0.60;;;;;;;;;;5003269;28;20232;-57
2023/05/16 10:20:43;;;;;;;0.50;0.50;;;;;;;;;;5005265;28;20237;-56
2023/05/16 10:23:15;;;;;;;1.03;0.43;;;;;;;;;;5007512;28;20302;-57
2023/05/16 10:25:43;;;;;;;5.00;0.60;;;;;;;;;;4978536;28;20307;-56
2023/05/16 10:28:11;;;;;;;4.83;0.50;;;;;;;;;;4978993;28;20685;-56
2023/05/16 10:30:42;;;;;;;0.97;0.77;;;;;;;;;;4989195;28;20205;-56
2023/05/16 10:33:10;;;;;;;1.80;0.50;;;;;;;;;;4987277;28;20214;-57
2023/05/16 10:35:37;;;;;;;0.73;0.63;;;;;;;;;;4988966;28;20236;-56
2023/05/16 10:38:05;;;;;;;0.20;0.20;;;;;;;;;;4974257;28;20210;-56
2023/05/16 10:40:32;;;;;;;0.30;0.30;;;;;;;;;;4969642;28;20301;-57
2023/05/16 10:43:00;;;;;;;0.87;0.33;;;;;;;;;;4980868;28;20206;-56
2023/05/16 10:45:28;;;;;;;0.40;0.40;;;;;;;;;;4988658;28;20265;-56
2023/05/16 10:47:56;;;;;;;0.77;0.60;;;;;;;;;;4986820;28;20206;-57
2023/05/16 10:50:43;;;;;;;0.97;0.60;;;;;;;;;;4988752;28;20279;-56
2023/05/16 10:53:15;;;;;;;5.05;1.25;;;;;;;;;;4980442;28;20204;-58
2023/05/16 10:55:49;;;;;;;4.60;0.30;;;;;;;;;;4983027;28;20225;-57
2023/05/16 10:58:19;;;;;;;3.60;0.52;;;;;;;;;;4980344;28;20213;-56
2023/05/16 11:00:48;;;;;;;0.73;0.60;;;;;;;;;;4988490;28;20746;-56
2023/05/16 11:03:24;;;;;;;1.53;0.47;;;;;;;;;;4994655;28;20209;-56
2023/05/16 11:05:53;;;;;;;0.40;0.40;;;;;;;;;;5007724;28;20264;-56
2023/05/16 11:08:21;;;;;;;1.90;0.80;;;;;;;;;;4994379;28;20248;-56
2023/05/16 11:10:48;;;;;;;2.97;0.50;;;;;;;;;;4988447;28;20218;-56
2023/05/16 11:13:18;;;;;;;0.47;0.23;;;;;;;;;;4986440;28;20214;-61
2023/05/16 11:15:46;;;;;;;3.23;0.50;;;;;;;;;;4993813;28;20312;-57
2023/05/16 11:18:15;;;;;;;2.80;0.47;;;;;;;;;;4973481;28;20242;-57
2023/05/16 11:20:42;;;;;;;0.40;0.40;;;;;;;;;;4979962;28;20253;-62
2023/05/16 11:23:24;;;;;;;1.97;0.40;;;;;;;;;;4997989;28;20233;-57
2023/05/16 11:25:53;;;;;;;1.80;0.37;;;;;;;;;;5003749;28;20259;-57
2023/05/16 11:28:20;;;;;;;2.13;0.50;;;;;;;;;;5006479;28;20215;-59
2023/05/16 11:30:49;;;;;;;0.60;0.30;;;;;;;;;;5001116;28;20213;-62
2023/05/16 11:33:16;;;;;;;0.50;0.30;;;;;;;;;;5004183;28;20308;-58
2023/05/16 11:35:43;;;;;;;1.27;0.40;;;;;;;;;;5005561;28;20204;-56
2023/05/16 11:38:15;;;;;;;0.90;0.50;;;;;;;;;;4990242;28;20738;-58
2023/05/16 11:40:44;;;;;;;1.80;0.63;;;;;;;;;;4991550;28;20284;-59
2023/05/16 11:43:11;;;;;;;0.52;0.35;;;;;;;;;;5002746;28;20224;-57
2023/05/16 11:45:39;;;;;;;0.33;0.33;;;;;;;;;;5000084;28;20237;-58
2023/05/16 11:48:07;;;;;;;0.73;0.52;;;;;;;;;;4996648;28;20216;-57
2023/05/16 11:50:35;;;;;;;3.90;0.70;;;;;;;;;;4993488;28;20213;-58
2023/05/16 11:53:02;;;;;;;0.50;0.50;;;;;;;;;;4988492;28;20205;-57
2023/05/16 11:55:29;;;;;;;2.05;0.68;;;;;;;;;;5000411;28;20290;-65
2023/05/16 11:57:59;;;;;;;0.35;0.35;;;;;;;;;;4992130;28;20214;-60
2023/05/16 12:00:27;;;;;;;0.52;0.43;;;;;;;;;;4994140;28;20201;-59
2023/05/16 12:02:54;;;;;;;0.50;0.40;;;;;;;;;;4998951;28;20205;-56
2023/05/16 12:05:26;;;;;;;1.15;0.43;;;;;;;;;;5001647;28;20260;-56
2023/05/16 12:07:54;;;;;;;1.23;0.57;;;;;;;;;;4993407;28;20301;-56
2023/05/16 12:10:21;;;;;;;0.90;0.35;;;;;;;;;;5005953;28;20696;-56
2023/05/16 12:12:50;;;;;;;1.35;0.30;;;;;;;;;;5004766;28;20749;-56
2023/05/16 12:15:19;;;;;;;0.50;0.50;;;;;;;;;;4999970;28;20320;-56
2023/05/16 12:17:46;;;;;;;0.55;0.30;;;;;;;;;;4994721;28;20724;-56
2023/05/16 12:20:15;;;;;;;1.88;0.50;;;;;;;;;;5006557;28;20237;-56
2023/05/16 12:22:42;;;;;;;0.63;0.40;;;;;;;;;;5006393;28;20237;-55
2023/05/16 12:25:22;;;;;;;1.85;0.10;;;;;;;;;;4989763;28;20244;-55
2023/05/16 12:27:49;;;;;;;0.65;0.55;;;;;;;;;;4972035;28;20256;-56
2023/05/16 12:30:18;;;;;;;1.17;0.35;;;;;;;;;;4986425;28;20288;-56
2023/05/16 12:32:45;;;;;;;0.55;0.20;;;;;;;;;;4986206;28;20708;-56
2023/05/16 12:35:12;;;;;;;0.82;0.50;;;;;;;;;;4988365;28;20209;-57
2023/05/16 12:37:40;;;;;;;0.47;0.47;;;;;;;;;;4973959;28;20619;-57
2023/05/16 12:40:12;;;;;;;2.88;0.70;;;;;;;;;;4986035;28;20197;-57
2023/05/16 12:42:39;;;;;;;0.65;0.30;;;;;;;;;;4982765;28;20280;-57
2023/05/16 12:45:06;;;;;;;0.40;0.40;;;;;;;;;;4986341;28;20572;-57
2023/05/16 12:47:38;;;;;;;1.52;0.30;;;;;;;;;;4983761;28;20214;-57
2023/05/16 12:50:10;;;;;;;1.00;0.47;;;;;;;;;;4971318;28;20217;-57
2023/05/16 12:52:38;;;;;;;0.20;0.20;;;;;;;;;;4985459;28;20213;-57
2023/05/16 12:55:05;;;;;;;1.60;0.20;;;;;;;;;;4989874;28;20300;-56
2023/05/16 12:57:32;;;;;;;0.70;0.30;;;;;;;;;;4991001;28;20213;-57
2023/05/16 12:59:59;;;;;;;0.38;0.38;;;;;;;;;;4990738;28;20272;-57
2023/05/16 13:02:26;;;;;;;0.95;0.20;;;;;;;;;;4985400;28;20210;-57
2023/05/16 13:04:56;;;;;;;0.40;0.40;;;;;;;;;;4986214;28;20238;-57
2023/05/16 13:07:23;;;;;;;3.97;0.20;;;;;;;;;;4990856;28;20208;-57
2023/05/16 13:09:50;;;;;;;0.40;0.20;;;;;;;;;;4990269;28;20221;-57
2023/05/16 13:12:17;;;;;;;0.90;0.40;;;;;;;;;;4973247;28;20217;-57
2023/05/16 13:14:45;;;;;;;0.30;0.30;;;;;;;;;;4985434;28;20206;-58
2023/05/16 13:17:12;;;;;;;0.70;0.30;;;;;;;;;;4989765;28;20569;-58
2023/05/16 13:19:39;;;;;;;0.22;0.22;;;;;;;;;;4984277;28;20233;-57
2023/05/16 13:22:08;;;;;;;2.50;0.40;;;;;;;;;;4981592;28;20538;-58
2023/05/16 13:24:35;;;;;;;3.35;0.68;;;;;;;;;;4990355;28;20205;-57
2023/05/16 13:27:02;;;;;;;0.20;0.20;;;;;;;;;;5000484;28;20212;-57
2023/05/16 13:29:29;;;;;;;1.65;0.63;;;;;;;;;;5008075;28;20213;-57
2023/05/16 13:31:56;;;;;;;0.38;0.30;;;;;;;;;;5006358;28;20650;-57
2023/05/16 13:34:23;;;;;;;1.60;0.60;;;;;;;;;;4996097;28;20226;-56
2023/05/16 13:36:50;;;;;;;3.63;0.20;;;;;;;;;;4988157;28;20283;-57
2023/05/16 13:39:19;;;;;;;0.75;0.20;;;;;;;;;;4992511;28;20233;-58
2023/05/16 13:41:47;;;;;;;2.45;0.80;;;;;;;;;;4999592;28;20746;-57
2023/05/16 13:44:14;;;;;;;0.10;0.10;;;;;;;;;;5008231;28;20271;-57
2023/05/16 13:46:41;;;;;;;1.27;0.80;;;;;;;;;;5008571;28;20239;-57
2023/05/16 13:49:08;;;;;;;0.40;0.20;;;;;;;;;;5008388;28;20205;-57
2023/05/16 13:51:35;;;;;;;7.55;0.43;;;;;;;;;;5009106;28;20216;-57
2023/05/16 13:54:02;;;;;;;0.28;0.28;;;;;;;;;;4994406;28;20209;-57
2023/05/16 13:56:30;;;;;;;0.30;0.30;;;;;;;;;;4989645;28;20218;-58
2023/05/16 13:58:58;;;;;;;0.10;0.10;;;;;;;;;;4988110;28;20213;-57
2023/05/16 14:01:25;;;;;;;0.43;0.43;;;;;;;;;;4989477;28;20240;-58
2023/05/16 14:03:52;;;;;;;0.98;0.40;;;;;;;;;;4999235;28;20235;-58
2023/05/16 14:06:21;;;;;;;2.75;0.40;;;;;;;;;;5008388;28;20298;-58
2023/05/16 14:08:48;;;;;;;0.25;0.20;;;;;;;;;;5008043;28;20227;-58
2023/05/16 14:11:18;;;;;;;0.13;0.13;;;;;;;;;;5007913;28;20545;-59
2023/05/16 14:13:48;;;;;;;0.30;0.30;;;;;;;;;;5004260;28;20216;-58
2023/05/16 14:16:15;;;;;;;0.50;0.40;;;;;;;;;;4999961;28;20236;-58
2023/05/16 14:18:42;;;;;;;0.50;0.38;;;;;;;;;;5007665;28;20562;-57
2023/05/16 14:21:09;;;;;;;1.45;0.30;;;;;;;;;;5001760;28;20668;-58
2023/05/16 14:23:36;;;;;;;0.73;0.73;;;;;;;;;;4989047;28;20241;-58
2023/05/16 14:26:03;;;;;;;2.45;0.28;;;;;;;;;;4995975;28;20511;-58
2023/05/16 14:28:31;;;;;;;1.00;0.75;;;;;;;;;;4995938;28;20216;-58
2023/05/16 14:30:59;;;;;;;0.10;0.10;;;;;;;;;;5008168;28;20214;-58
2023/05/16 14:33:26;;;;;;;0.20;0.20;;;;;;;;;;5007708;28;20213;-58
2023/05/16 14:35:53;;;;;;;0.38;0.30;;;;;;;;;;4994149;28;20219;-58
2023/05/16 14:38:21;;;;;;;0.40;0.40;;;;;;;;;;5003248;28;20271;-58
2023/05/16 14:40:48;;;;;;;0.20;0.10;;;;;;;;;;5007974;28;20216;-58
2023/05/16 14:43:15;;;;;;;0.68;0.20;;;;;;;;;;5007763;28;20264;-58
2023/05/16 14:45:42;;;;;;;2.17;0.52;;;;;;;;;;5005613;28;20701;-58